createdAt,value
2017-12-28T00:02:01.288Z,5.20
2017-12-28T00:04:29.754Z,5.20
2017-12-28T00:06:58.184Z,5.20
2017-12-28T00:09:25.940Z,5.20
2017-12-28T00:11:53.598Z,5.20
2017-12-28T00:14:21.473Z,5.10
2017-12-28T00:16:49.337Z,5.20
2017-12-28T00:19:17.310Z,5.20
2017-12-28T00:21:44.957Z,5.10
2017-12-28T00:24:12.851Z,5.10
2017-12-28T00:26:40.539Z,5.10
2017-12-28T00:29:08.986Z,5.00
2017-12-28T00:31:36.824Z,5.00
2017-12-28T00:34:04.543Z,5.00
2017-12-28T00:36:33.007Z,4.90
2017-12-28T00:39:01.552Z,4.90
2017-12-28T00:41:29.259Z,4.90
2017-12-28T00:43:57.797Z,4.90
2017-12-28T00:46:25.452Z,4.80
2017-12-28T00:48:53.211Z,4.80
2017-12-28T00:51:20.886Z,4.80
2017-12-28T00:53:48.595Z,4.80
2017-12-28T00:56:16.389Z,4.80
2017-12-28T00:58:44.055Z,4.80
2017-12-28T01:01:11.763Z,4.80
2017-12-28T01:03:40.191Z,4.70
2017-12-28T01:06:07.911Z,4.70
2017-12-28T01:08:35.588Z,4.70
2017-12-28T01:11:03.304Z,4.70
2017-12-28T01:13:30.978Z,4.70
2017-12-28T01:15:59.451Z,4.60
2017-12-28T01:18:27.885Z,4.60
2017-12-28T01:20:55.581Z,4.60
2017-12-28T01:23:24.028Z,4.60
2017-12-28T01:25:51.739Z,4.60
2017-12-28T01:28:19.397Z,4.60
2017-12-28T01:30:47.884Z,4.50
2017-12-28T01:33:15.562Z,4.50
2017-12-28T01:35:43.262Z,4.50
2017-12-28T01:38:10.918Z,4.50
2017-12-28T01:40:38.671Z,4.50
2017-12-28T01:43:06.322Z,4.40
2017-12-28T01:45:34.021Z,4.40
2017-12-28T01:48:02.474Z,4.40
2017-12-28T01:50:30.186Z,4.40
2017-12-28T01:52:57.849Z,4.40
2017-12-28T01:55:25.842Z,4.30
2017-12-28T01:57:53.590Z,4.40
2017-12-28T02:03:23.007Z,4.30
2017-12-28T02:05:51.843Z,4.30
2017-12-28T02:08:20.254Z,4.30
2017-12-28T02:10:48.020Z,4.20
2017-12-28T02:13:15.993Z,4.30
2017-12-28T02:15:43.690Z,4.30
2017-12-28T02:18:11.624Z,4.30
2017-12-28T02:20:39.501Z,4.30
2017-12-28T02:23:07.286Z,4.30
2017-12-28T02:25:35.122Z,4.30
2017-12-28T02:28:03.016Z,4.20
2017-12-28T02:30:31.128Z,4.20
2017-12-28T02:33:00.120Z,4.10
2017-12-28T02:35:27.950Z,4.10
2017-12-28T02:37:56.978Z,4.10
2017-12-28T02:40:25.123Z,4.10
2017-12-28T02:42:52.979Z,4.20
2017-12-28T02:45:21.687Z,4.10
2017-12-28T02:47:49.530Z,4.10
2017-12-28T02:50:18.760Z,3.90
2017-12-28T02:52:46.648Z,3.90
2017-12-28T02:55:14.616Z,3.90
2017-12-28T02:57:43.255Z,3.90
2017-12-28T03:00:11.119Z,3.90
2017-12-28T03:02:39.911Z,3.90
2017-12-28T03:05:07.923Z,4.00
2017-12-28T03:07:36.242Z,3.90
2017-12-28T03:10:19.060Z,4.10
2017-12-28T03:12:47.210Z,4.00
2017-12-28T03:15:15.910Z,4.00
2017-12-28T03:17:43.750Z,4.00
2017-12-28T03:20:11.538Z,4.00
2017-12-28T03:22:39.535Z,4.10
2017-12-28T03:25:07.301Z,4.00
2017-12-28T03:27:36.143Z,4.00
2017-12-28T03:30:21.933Z,3.80
2017-12-28T03:32:53.518Z,3.90
2017-12-28T03:38:15.185Z,3.90
2017-12-28T03:40:43.817Z,4.00
2017-12-28T03:43:11.664Z,4.00
2017-12-28T03:45:39.590Z,3.90
2017-12-28T03:48:07.624Z,3.90
2017-12-28T03:50:35.483Z,3.90
2017-12-28T03:53:03.670Z,3.90
2017-12-28T03:55:31.532Z,4.00
2017-12-28T03:57:59.574Z,4.00
2017-12-28T04:00:27.719Z,4.00
2017-12-28T04:02:55.469Z,4.10
2017-12-28T04:05:24.562Z,4.30
2017-12-28T04:07:53.066Z,4.30
2017-12-28T04:10:22.078Z,4.30
2017-12-28T04:12:55.290Z,4.20
2017-12-28T04:15:23.384Z,4.30
2017-12-28T04:17:51.335Z,4.30
2017-12-28T04:20:19.246Z,4.40
2017-12-28T04:22:48.474Z,4.50
2017-12-28T04:25:16.341Z,4.50
2017-12-28T04:27:44.630Z,4.50
2017-12-28T04:30:13.728Z,4.60
2017-12-28T04:32:42.299Z,4.50
2017-12-28T04:35:10.316Z,4.50
2017-12-28T04:37:38.742Z,4.50
2017-12-28T04:40:06.557Z,4.50
2017-12-28T04:42:35.980Z,4.50
2017-12-28T04:45:04.017Z,4.50
2017-12-28T04:50:25.590Z,4.60
2017-12-28T04:52:53.597Z,4.50
2017-12-28T04:55:26.406Z,4.40
2017-12-28T04:57:54.839Z,4.50
2017-12-28T05:00:23.234Z,4.50
2017-12-28T05:02:51.877Z,4.40
2017-12-28T05:05:26.456Z,4.40
2017-12-28T05:07:54.597Z,4.50
2017-12-28T05:10:23.907Z,4.50
2017-12-28T05:12:51.878Z,4.50
2017-12-28T05:15:19.730Z,4.40
2017-12-28T05:17:47.661Z,4.40
2017-12-28T05:20:15.432Z,4.40
2017-12-28T05:22:43.232Z,4.40
2017-12-28T05:25:12.766Z,4.40
2017-12-28T05:27:40.765Z,4.40
2017-12-28T05:30:09.695Z,4.40
2017-12-28T05:32:37.654Z,4.40
2017-12-28T05:35:05.358Z,4.30
2017-12-28T05:37:33.228Z,4.40
2017-12-28T05:40:01.282Z,4.20
2017-12-28T05:42:29.473Z,4.20
2017-12-28T05:44:57.493Z,4.10
2017-12-28T05:47:25.403Z,4.10
2017-12-28T05:49:54.294Z,4.30
2017-12-28T05:52:22.094Z,4.30
2017-12-28T05:54:49.924Z,4.20
2017-12-28T05:57:17.953Z,4.20
2017-12-28T05:59:45.654Z,4.20
2017-12-28T06:02:13.835Z,4.20
2017-12-28T06:04:42.555Z,4.20
2017-12-28T06:07:10.295Z,4.20
2017-12-28T06:09:38.564Z,4.30
2017-12-28T06:12:06.346Z,4.30
2017-12-28T06:14:35.316Z,4.20
2017-12-28T06:17:03.547Z,4.10
2017-12-28T06:19:31.261Z,4.10
2017-12-28T06:21:59.759Z,4.20
2017-12-28T06:24:27.763Z,4.10
2017-12-28T06:26:55.522Z,4.10
2017-12-28T06:29:26.995Z,4.00
2017-12-28T06:31:55.270Z,4.00
2017-12-28T06:34:23.258Z,4.00
2017-12-28T06:36:51.740Z,4.00
2017-12-28T06:39:20.176Z,4.00
2017-12-28T06:41:48.038Z,4.10
2017-12-28T06:44:15.795Z,4.10
2017-12-28T06:46:43.720Z,4.00
2017-12-28T06:49:11.588Z,4.00
2017-12-28T06:51:39.621Z,3.80
2017-12-28T06:54:08.600Z,3.70
2017-12-28T06:56:37.166Z,3.70
2017-12-28T06:59:05.163Z,3.70
2017-12-28T07:01:33.650Z,3.70
2017-12-28T07:04:02.114Z,3.70
2017-12-28T07:06:30.155Z,3.60
2017-12-28T07:08:58.000Z,3.60
2017-12-28T07:11:25.835Z,3.50
2017-12-28T07:13:53.694Z,3.50
2017-12-28T07:16:22.330Z,3.50
2017-12-28T07:18:50.371Z,3.50
2017-12-28T07:21:18.303Z,3.50
2017-12-28T07:23:46.898Z,3.50
2017-12-28T07:26:15.050Z,3.50
2017-12-28T07:28:42.867Z,3.30
2017-12-28T07:31:10.553Z,3.30
2017-12-28T07:33:38.515Z,3.40
2017-12-28T07:36:06.836Z,3.30
2017-12-28T07:38:34.992Z,3.20
2017-12-28T07:41:02.790Z,3.30
2017-12-28T07:43:32.921Z,3.30
2017-12-28T07:46:00.785Z,3.30
2017-12-28T07:48:29.215Z,3.20
2017-12-28T07:50:58.777Z,3.10
2017-12-28T07:53:26.505Z,3.10
2017-12-28T07:55:55.276Z,3.20
2017-12-28T07:58:23.276Z,3.20
2017-12-28T08:00:51.019Z,3.20
2017-12-28T08:03:19.219Z,3.20
2017-12-28T08:05:47.746Z,3.20
2017-12-28T08:08:15.832Z,3.20
2017-12-28T08:10:44.164Z,3.30
2017-12-28T08:13:12.067Z,3.10
2017-12-28T08:15:40.813Z,3.10
2017-12-28T08:18:08.887Z,3.20
2017-12-28T08:20:37.395Z,3.30
2017-12-28T08:23:05.627Z,3.40
2017-12-28T08:25:33.441Z,3.40
2017-12-28T08:28:01.338Z,3.60
2017-12-28T08:30:29.268Z,3.70
2017-12-28T08:32:57.181Z,3.80
2017-12-28T08:35:25.159Z,3.90
2017-12-28T08:37:53.890Z,3.80
2017-12-28T08:40:22.798Z,3.80
2017-12-28T08:42:50.629Z,3.80
2017-12-28T08:45:18.402Z,3.80
2017-12-28T08:47:48.352Z,3.90
2017-12-28T08:50:16.165Z,4.00
2017-12-28T08:52:44.182Z,4.00
2017-12-28T08:55:12.557Z,4.00
2017-12-28T08:57:42.827Z,4.10
2017-12-28T09:00:10.731Z,4.20
2017-12-28T09:02:38.693Z,4.20
2017-12-28T09:05:06.572Z,4.30
2017-12-28T09:07:34.288Z,4.20
2017-12-28T09:10:03.922Z,4.40
2017-12-28T09:12:31.961Z,4.40
2017-12-28T09:15:00.822Z,4.30
2017-12-28T09:17:29.470Z,4.40
2017-12-28T09:20:00.535Z,4.40
2017-12-28T09:22:28.315Z,4.40
2017-12-28T09:24:57.324Z,4.30
2017-12-28T09:27:25.174Z,4.30
2017-12-28T09:29:53.763Z,4.30
2017-12-28T09:32:21.633Z,4.30
2017-12-28T09:34:49.515Z,4.30
2017-12-28T09:37:17.544Z,4.30
2017-12-28T09:39:46.375Z,4.30
2017-12-28T09:42:14.515Z,4.30
2017-12-28T09:44:42.975Z,4.30
2017-12-28T09:47:10.834Z,4.20
2017-12-28T09:49:39.506Z,4.30
2017-12-28T09:52:07.398Z,4.30
2017-12-28T09:54:35.308Z,4.40
2017-12-28T09:57:03.143Z,4.30
2017-12-28T09:59:30.862Z,4.40
2017-12-28T10:01:58.579Z,4.30
2017-12-28T10:04:26.431Z,4.40
2017-12-28T10:06:54.159Z,4.40
2017-12-28T10:09:22.107Z,4.60
2017-12-28T10:11:51.068Z,4.70
2017-12-28T10:14:20.455Z,4.70
2017-12-28T10:16:48.247Z,4.60
2017-12-28T10:19:16.128Z,4.60
2017-12-28T10:21:44.588Z,4.70
2017-12-28T10:24:13.051Z,4.80
2017-12-28T10:26:40.728Z,4.80
2017-12-28T10:29:08.591Z,4.90
2017-12-28T10:31:36.412Z,4.90
2017-12-28T10:34:04.140Z,4.90
2017-12-28T10:36:31.911Z,5.10
2017-12-28T10:39:00.386Z,5.10
2017-12-28T10:41:28.322Z,5.10
2017-12-28T10:43:57.312Z,5.20
2017-12-28T10:46:25.943Z,5.20
2017-12-28T10:48:53.822Z,5.30
2017-12-28T10:51:21.499Z,5.20
2017-12-28T10:53:49.330Z,5.20
2017-12-28T10:56:17.255Z,5.00
2017-12-28T10:58:45.156Z,5.00
2017-12-28T11:01:13.254Z,4.80
2017-12-28T11:03:41.043Z,4.80
2017-12-28T11:06:08.767Z,4.80
2017-12-28T11:08:36.624Z,4.90
2017-12-28T11:11:04.354Z,4.90
2017-12-28T11:13:33.700Z,5.00
2017-12-28T11:16:01.579Z,4.90
2017-12-28T11:18:29.519Z,4.90
2017-12-28T11:20:57.335Z,4.90
2017-12-28T11:23:24.990Z,4.70
2017-12-28T11:25:52.796Z,4.80
2017-12-28T11:28:20.716Z,4.80
2017-12-28T11:30:49.347Z,4.90
2017-12-28T11:33:17.196Z,4.90
2017-12-28T11:35:44.917Z,5.10
2017-12-28T11:38:12.696Z,5.10
2017-12-28T11:40:40.840Z,5.20
2017-12-28T11:43:08.516Z,5.20
2017-12-28T11:45:36.368Z,5.20
2017-12-28T11:48:05.058Z,5.10
2017-12-28T11:50:39.964Z,5.10
2017-12-28T11:53:09.079Z,5.00
2017-12-28T11:55:42.742Z,5.00
2017-12-28T11:58:10.899Z,5.00
2017-12-28T12:00:44.294Z,5.10
2017-12-28T12:03:12.203Z,4.90
2017-12-28T12:05:45.679Z,5.00
2017-12-28T12:08:19.929Z,5.20
2017-12-28T12:10:51.721Z,5.20
2017-12-28T12:13:19.398Z,5.30
2017-12-28T12:15:47.147Z,5.30
2017-12-28T12:18:15.130Z,5.50
2017-12-28T12:20:42.810Z,5.50
2017-12-28T12:23:11.450Z,5.40
2017-12-28T12:25:39.129Z,5.40
2017-12-28T12:28:06.991Z,5.60
2017-12-28T12:30:34.738Z,5.90
2017-12-28T12:33:02.454Z,5.90
2017-12-28T12:35:30.202Z,5.90
2017-12-28T12:37:57.910Z,5.90
2017-12-28T12:43:14.535Z,5.90
2017-12-28T12:45:42.193Z,5.80
2017-12-28T12:48:10.074Z,5.70
2017-12-28T12:50:37.766Z,5.30
2017-12-28T12:53:05.585Z,5.30
2017-12-28T12:55:33.408Z,5.10
2017-12-28T12:58:01.102Z,4.70
2017-12-28T13:00:29.404Z,4.40
2017-12-28T13:02:57.206Z,4.20
2017-12-28T13:05:25.081Z,4.20
2017-12-28T13:07:52.875Z,3.90
2017-12-28T13:10:20.674Z,3.70
2017-12-28T13:12:48.539Z,3.60
2017-12-28T13:15:16.218Z,3.80
2017-12-28T13:17:43.966Z,3.90
2017-12-28T13:20:11.746Z,4.00
2017-12-28T13:22:39.589Z,3.90
2017-12-28T13:25:07.368Z,4.00
2017-12-28T13:27:35.887Z,4.40
2017-12-28T13:30:03.664Z,4.40
2017-12-28T13:32:31.495Z,4.40
2017-12-28T13:34:59.202Z,4.30
2017-12-28T13:37:26.947Z,4.20
2017-12-28T13:39:54.728Z,4.10
2017-12-28T13:42:23.258Z,4.20
2017-12-28T13:44:51.110Z,4.20
2017-12-28T13:47:19.539Z,4.10
2017-12-28T13:49:47.450Z,4.10
2017-12-28T13:52:15.230Z,4.10
2017-12-28T13:54:43.841Z,4.20
2017-12-28T13:57:11.619Z,4.30
2017-12-28T13:59:39.492Z,4.20
2017-12-28T14:02:07.162Z,4.40
2017-12-28T14:04:35.049Z,4.40
2017-12-28T14:07:02.760Z,4.50
2017-12-28T14:09:30.695Z,4.70
2017-12-28T14:11:58.663Z,4.60
2017-12-28T14:14:26.561Z,4.40
2017-12-28T14:16:54.531Z,4.30
2017-12-28T14:19:23.028Z,4.30
2017-12-28T14:21:50.832Z,4.20
2017-12-28T14:24:18.823Z,4.20
2017-12-28T14:26:50.152Z,4.20
2017-12-28T14:29:18.043Z,4.20
2017-12-28T14:31:45.758Z,4.10
2017-12-28T14:34:15.213Z,4.00
2017-12-28T14:36:43.193Z,4.00
2017-12-28T14:39:11.643Z,3.90
2017-12-28T14:41:39.447Z,4.00
2017-12-28T14:44:08.007Z,4.00
2017-12-28T14:46:42.823Z,4.00
2017-12-28T14:49:11.709Z,4.10
2017-12-28T14:51:39.412Z,4.00
2017-12-28T14:54:08.017Z,3.90
2017-12-28T14:56:36.047Z,3.90
2017-12-28T14:59:03.955Z,3.90
2017-12-28T15:01:32.552Z,3.80
2017-12-28T15:04:00.235Z,3.80
2017-12-28T15:06:28.046Z,3.80
2017-12-28T15:08:56.026Z,3.80
2017-12-28T15:11:32.756Z,3.80
2017-12-28T15:14:05.547Z,3.80
2017-12-28T15:16:33.308Z,3.60
2017-12-28T15:19:01.885Z,3.60
2017-12-28T15:21:29.618Z,3.60
2017-12-28T15:23:57.436Z,3.70
2017-12-28T15:26:25.249Z,3.70
2017-12-28T15:28:52.977Z,3.70
2017-12-28T15:31:20.987Z,3.70
2017-12-28T15:33:49.427Z,3.60
2017-12-28T15:36:17.248Z,3.60
2017-12-28T15:38:45.248Z,3.40
2017-12-28T15:41:13.731Z,3.20
2017-12-28T15:43:41.529Z,3.20
2017-12-28T15:46:11.139Z,3.00
2017-12-28T15:48:38.854Z,3.00
2017-12-28T15:51:06.736Z,2.80
2017-12-28T15:53:34.447Z,2.70
2017-12-28T15:56:03.659Z,2.90
2017-12-28T15:58:32.210Z,2.90
2017-12-28T16:01:00.645Z,3.10
2017-12-28T16:03:29.771Z,3.10
2017-12-28T16:05:58.223Z,3.10
2017-12-28T16:08:26.031Z,3.00
2017-12-28T16:10:53.861Z,3.00
2017-12-28T16:13:21.610Z,2.80
2017-12-28T16:15:49.529Z,2.70
2017-12-28T16:18:18.078Z,3.00
2017-12-28T16:20:45.899Z,2.90
2017-12-28T16:23:13.743Z,2.90
2017-12-28T16:25:41.429Z,2.90
2017-12-28T16:28:09.267Z,2.90
2017-12-28T16:30:37.104Z,3.00
2017-12-28T16:33:04.837Z,2.90
2017-12-28T16:35:33.815Z,3.00
2017-12-28T16:38:01.691Z,2.90
2017-12-28T16:40:29.575Z,2.90
2017-12-28T16:42:57.287Z,2.90
2017-12-28T16:45:24.948Z,2.90
2017-12-28T16:47:53.112Z,2.80
2017-12-28T16:50:20.809Z,2.80
2017-12-28T16:52:48.581Z,2.90
2017-12-28T16:55:16.395Z,2.80
2017-12-28T16:57:44.099Z,2.70
2017-12-28T17:00:12.106Z,2.70
2017-12-28T17:02:39.947Z,2.70
2017-12-28T17:05:08.283Z,2.70
2017-12-28T17:07:36.253Z,2.60
2017-12-28T17:10:03.990Z,2.60
2017-12-28T17:12:31.811Z,2.60
2017-12-28T17:15:00.415Z,2.50
2017-12-28T17:17:28.088Z,2.40
2017-12-28T17:19:55.908Z,2.30
2017-12-28T17:22:23.606Z,2.30
2017-12-28T17:24:51.478Z,2.20
2017-12-28T17:27:19.380Z,2.20
2017-12-28T17:29:47.082Z,2.10
2017-12-28T17:32:14.905Z,2.00
2017-12-28T17:34:42.679Z,2.00
2017-12-28T17:37:11.105Z,2.00
2017-12-28T17:39:38.976Z,2.00
2017-12-28T17:42:06.693Z,2.00
2017-12-28T17:44:35.423Z,2.00
2017-12-28T17:47:03.091Z,2.00
2017-12-28T17:49:31.520Z,2.00
2017-12-28T17:51:59.794Z,2.00
2017-12-28T17:54:28.130Z,2.00
2017-12-28T17:56:56.052Z,2.00
2017-12-28T17:59:26.591Z,2.10
2017-12-28T18:01:54.388Z,2.00
2017-12-28T18:04:22.263Z,2.10
2017-12-28T18:06:50.215Z,2.00
2017-12-28T18:09:18.274Z,2.00
2017-12-28T18:11:46.346Z,1.90
2017-12-28T18:14:14.492Z,1.90
2017-12-28T18:16:43.371Z,1.90
2017-12-28T18:19:11.167Z,1.90
2017-12-28T18:21:39.023Z,2.00
2017-12-28T18:24:06.974Z,1.90
2017-12-28T18:26:35.575Z,1.80
2017-12-28T18:29:03.534Z,1.80
2017-12-28T18:31:31.475Z,2.00
2017-12-28T18:33:59.197Z,2.10
2017-12-28T18:36:27.797Z,2.10
2017-12-28T18:38:55.577Z,2.00
2017-12-28T18:41:23.390Z,2.10
2017-12-28T18:43:52.101Z,2.10
2017-12-28T18:46:19.969Z,2.10
2017-12-28T18:48:49.597Z,2.10
2017-12-28T18:51:18.134Z,2.20
2017-12-28T18:53:48.080Z,2.10
2017-12-28T18:56:16.087Z,2.10
2017-12-28T18:58:44.017Z,2.00
2017-12-28T19:01:12.139Z,2.10
2017-12-28T19:03:41.313Z,2.10
2017-12-28T19:06:08.989Z,2.10
2017-12-28T19:08:37.376Z,1.90
2017-12-28T19:11:05.087Z,2.00
2017-12-28T19:13:35.215Z,2.00
2017-12-28T19:16:03.302Z,2.00
2017-12-28T19:18:31.347Z,2.00
2017-12-28T19:20:59.239Z,1.90
2017-12-28T19:23:26.990Z,2.00
2017-12-28T19:25:55.010Z,2.00
2017-12-28T19:28:22.870Z,2.00
2017-12-28T19:30:50.853Z,2.00
2017-12-28T19:33:19.806Z,1.80
2017-12-28T19:35:47.505Z,1.80
2017-12-28T19:38:15.409Z,1.80
2017-12-28T19:40:43.744Z,1.90
2017-12-28T19:43:11.458Z,1.90
2017-12-28T19:45:39.343Z,1.70
2017-12-28T19:48:07.331Z,1.60
2017-12-28T19:50:35.231Z,1.60
2017-12-28T19:53:12.982Z,1.50
2017-12-28T19:55:40.653Z,1.60
2017-12-28T19:58:08.559Z,1.70
2017-12-28T20:00:37.441Z,1.50
2017-12-28T20:03:05.310Z,1.50
2017-12-28T20:05:33.140Z,1.60
2017-12-28T20:08:00.896Z,1.60
2017-12-28T20:10:28.729Z,1.50
2017-12-28T20:12:56.443Z,1.50
2017-12-28T20:15:25.083Z,1.50
2017-12-28T20:17:53.035Z,1.50
2017-12-28T20:20:21.277Z,1.50
2017-12-28T20:22:49.110Z,1.40
2017-12-28T20:25:17.290Z,1.40
2017-12-28T20:27:45.005Z,1.30
2017-12-28T20:30:13.596Z,1.30
2017-12-28T20:32:41.291Z,1.30
2017-12-28T20:35:09.154Z,1.30
2017-12-28T20:37:37.149Z,1.30
2017-12-28T20:40:48.376Z,1.20
2017-12-28T20:43:16.771Z,1.20
2017-12-28T20:45:44.766Z,1.20
2017-12-28T20:48:13.547Z,1.20
2017-12-28T20:50:41.308Z,1.20
2017-12-28T20:53:09.227Z,1.20
2017-12-28T20:55:37.079Z,1.20
2017-12-28T20:58:04.985Z,1.30
2017-12-28T21:00:32.977Z,1.30
2017-12-28T21:03:01.609Z,1.30
2017-12-28T21:05:29.398Z,1.30
2017-12-28T21:07:57.249Z,1.20
2017-12-28T21:10:25.099Z,1.20
2017-12-28T21:12:52.924Z,1.20
2017-12-28T21:15:21.396Z,1.30
2017-12-28T21:17:49.239Z,1.30
2017-12-28T21:20:17.084Z,1.20
2017-12-28T21:22:45.043Z,1.10
2017-12-28T21:25:12.915Z,1.10
2017-12-28T21:27:40.800Z,1.10
2017-12-28T21:30:09.521Z,1.20
2017-12-28T21:32:37.389Z,1.10
2017-12-28T21:35:05.356Z,1.20
2017-12-28T21:37:34.303Z,1.30
2017-12-28T21:40:03.664Z,1.30
2017-12-28T21:42:31.626Z,1.30
2017-12-28T21:44:59.394Z,1.20
2017-12-28T21:47:27.081Z,1.20
2017-12-28T21:49:55.035Z,1.20
2017-12-28T21:52:22.948Z,1.30
2017-12-28T21:54:50.910Z,1.30
2017-12-28T21:57:20.473Z,1.30
2017-12-28T21:59:48.322Z,1.30
2017-12-28T22:02:16.081Z,1.30
2017-12-28T22:04:43.854Z,1.40
2017-12-28T22:07:11.814Z,1.40
2017-12-28T22:09:40.613Z,1.40
2017-12-28T22:12:10.628Z,1.50
2017-12-28T22:14:40.827Z,1.50
2017-12-28T22:17:09.164Z,1.50
2017-12-28T22:19:36.902Z,1.50
2017-12-28T22:22:06.394Z,1.60
2017-12-28T22:24:35.300Z,1.50
2017-12-28T22:27:03.857Z,1.50
2017-12-28T22:29:32.716Z,1.60
2017-12-28T22:32:00.547Z,1.60
2017-12-28T22:34:29.997Z,1.70
2017-12-28T22:36:58.466Z,1.70
2017-12-28T22:39:26.690Z,1.70
2017-12-28T22:41:54.818Z,1.70
2017-12-28T22:44:22.544Z,1.60
2017-12-28T22:46:50.708Z,1.60
2017-12-28T22:49:18.523Z,1.60
2017-12-28T22:51:46.307Z,1.60
2017-12-28T22:54:14.359Z,1.50
2017-12-28T22:56:42.440Z,1.50
2017-12-28T22:59:10.423Z,1.50
2017-12-28T23:01:39.386Z,1.50
2017-12-28T23:04:07.150Z,1.50
2017-12-28T23:06:35.118Z,1.50
2017-12-28T23:09:04.278Z,1.50
2017-12-28T23:11:32.319Z,1.50
2017-12-28T23:14:01.228Z,1.50
2017-12-28T23:16:28.987Z,1.50
2017-12-28T23:18:56.866Z,1.50
2017-12-28T23:21:24.753Z,1.50
2017-12-28T23:23:52.798Z,1.50
2017-12-28T23:26:20.927Z,1.50
2017-12-28T23:28:48.782Z,1.60
2017-12-28T23:31:16.813Z,1.60
2017-12-28T23:33:44.640Z,1.60
2017-12-28T23:36:12.547Z,1.50
2017-12-28T23:38:40.591Z,1.50
2017-12-28T23:41:08.408Z,1.50
2017-12-28T23:43:37.406Z,1.50
2017-12-28T23:46:06.262Z,1.50
2017-12-28T23:48:34.077Z,1.50
2017-12-28T23:51:02.252Z,1.50
2017-12-28T23:53:29.995Z,1.50
2017-12-28T23:55:58.548Z,1.50
2017-12-28T23:58:26.703Z,1.50
